Time;durP1;ratioP1;P1;durP2;ratioP2;P2;SDS_P1;SDS_P2;PMS_P1;PMS_P2;Temp;Humidity;BMP_temperature;BMP_pressure;BME280_temperature;BME280_humidity;BME280_pressure;Samples;Min_cycle;Max_cycle;Signal;HPM_P1;HPM_P2
2024/01/30 00:01:42;;;;;;;9.17;7.00;;;10.50;99.90;;;;;;4982121;28;20228;-81
2024/01/30 00:04:09;;;;;;;9.30;7.23;;;10.50;99.90;;;;;;4982080;28;20232;-81
2024/01/30 00:06:37;;;;;;;9.30;8.27;;;10.40;99.90;;;;;;4982624;28;20207;-81
2024/01/30 00:09:05;;;;;;;10.13;8.13;;;10.50;99.90;;;;;;4982630;28;20201;-81
2024/01/30 00:11:33;;;;;;;8.70;7.57;;;10.40;99.90;;;;;;4980178;28;20200;-80
2024/01/30 00:14:00;;;;;;;8.80;7.50;;;10.40;99.90;;;;;;4992451;28;20212;-81
2024/01/30 00:16:28;;;;;;;10.67;7.93;;;10.40;99.90;;;;;;4982630;28;20205;-81
2024/01/30 00:18:56;;;;;;;8.37;7.57;;;10.40;99.90;;;;;;4982472;28;20196;-81
2024/01/30 00:21:24;;;;;;;8.93;8.03;;;10.40;99.90;;;;;;4990846;28;20189;-81
2024/01/30 00:23:51;;;;;;;9.80;7.40;;;10.40;99.90;;;;;;4975644;28;20597;-81
2024/01/30 00:26:20;;;;;;;9.63;7.47;;;10.30;99.90;;;;;;4984020;28;20693;-81
2024/01/30 00:28:48;;;;;;;8.67;7.70;;;10.40;99.90;;;;;;4985485;28;20199;-80
2024/01/30 00:31:15;;;;;;;9.10;7.63;;;10.40;99.90;;;;;;4984129;28;20207;-81
2024/01/30 00:33:47;;;;;;;10.07;8.00;;;10.30;99.90;;;;;;4983859;28;20220;-81
2024/01/30 00:36:14;;;;;;;9.90;7.80;;;10.30;99.90;;;;;;4989971;28;20196;-81
2024/01/30 00:38:42;;;;;;;9.20;7.53;;;10.30;99.90;;;;;;5005787;28;20199;-81
2024/01/30 00:41:10;;;;;;;9.73;7.83;;;10.30;99.90;;;;;;4995769;28;20201;-81
2024/01/30 00:43:38;;;;;;;10.50;8.07;;;10.30;99.90;;;;;;4981313;28;20220;-81
2024/01/30 00:46:06;;;;;;;8.30;7.40;;;10.30;99.90;;;;;;4981550;28;20204;-81
2024/01/30 00:48:33;;;;;;;10.68;7.95;;;10.30;99.90;;;;;;4979409;28;20201;-81
2024/01/30 00:51:01;;;;;;;11.23;7.77;;;10.30;99.90;;;;;;4971412;28;20560;-81
2024/01/30 00:53:28;;;;;;;11.87;8.33;;;10.30;99.90;;;;;;4997981;28;20270;-81
2024/01/30 00:55:56;;;;;;;10.00;7.83;;;10.30;99.90;;;;;;4981104;28;20211;-81
2024/01/30 00:58:22;;;;;;;10.00;7.90;;;10.30;99.90;;;;;;4981742;28;20223;-81
2024/01/30 01:00:51;;;;;;;9.10;7.23;;;10.30;99.90;;;;;;4992902;28;20203;-81
2024/01/30 01:03:19;;;;;;;10.70;8.80;;;10.30;99.90;;;;;;4996944;28;20219;-81
2024/01/30 01:05:46;;;;;;;9.93;7.80;;;10.30;99.90;;;;;;4981325;28;20203;-81
2024/01/30 01:08:14;;;;;;;9.17;7.80;;;10.30;99.90;;;;;;4991243;28;20216;-81
2024/01/30 01:10:42;;;;;;;10.13;8.20;;;10.30;99.90;;;;;;4982220;28;20200;-81
2024/01/30 01:13:10;;;;;;;9.90;8.03;;;10.40;99.90;;;;;;5002412;28;20220;-81
2024/01/30 01:15:37;;;;;;;8.93;7.80;;;10.40;99.90;;;;;;4983022;28;20200;-81
2024/01/30 01:18:06;;;;;;;9.67;8.30;;;10.40;99.90;;;;;;4982840;28;20227;-81
2024/01/30 01:20:34;;;;;;;9.30;7.93;;;10.40;99.90;;;;;;4982805;28;20204;-81
2024/01/30 01:23:01;;;;;;;9.30;8.27;;;10.40;99.90;;;;;;4985604;28;20223;-81
2024/01/30 01:25:28;;;;;;;8.43;7.53;;;10.40;99.90;;;;;;4982366;28;20219;-81
2024/01/30 01:27:57;;;;;;;10.50;8.20;;;10.40;99.90;;;;;;4988201;28;20569;-81
2024/01/30 01:30:25;;;;;;;11.17;8.00;;;10.40;99.90;;;;;;4989306;28;20211;-81
2024/01/30 01:32:56;;;;;;;10.73;8.20;;;10.40;99.90;;;;;;4997311;28;20686;-81
2024/01/30 01:35:26;;;;;;;9.93;7.77;;;10.40;99.90;;;;;;4999973;28;20189;-81
2024/01/30 01:37:55;;;;;;;8.80;7.90;;;10.40;99.90;;;;;;4980151;28;20200;-81
2024/01/30 01:40:24;;;;;;;9.00;8.10;;;10.30;99.90;;;;;;4979036;28;20205;-81
2024/01/30 01:42:52;;;;;;;11.23;8.23;;;10.40;99.90;;;;;;4999319;28;20228;-81
2024/01/30 01:45:20;;;;;;;11.23;8.43;;;10.40;99.90;;;;;;5010310;28;20224;-81
2024/01/30 01:47:49;;;;;;;9.73;7.83;;;10.40;99.90;;;;;;4983195;28;20203;-80
2024/01/30 01:50:18;;;;;;;9.73;8.13;;;10.30;99.90;;;;;;4982505;28;20197;-81
2024/01/30 01:52:49;;;;;;;10.50;7.97;;;10.30;99.90;;;;;;4982854;28;20219;-81
2024/01/30 01:55:18;;;;;;;10.00;8.43;;;10.30;99.90;;;;;;4984683;28;20200;-81
2024/01/30 01:57:46;;;;;;;8.33;7.37;;;10.30;99.90;;;;;;4964139;28;20578;-81
2024/01/30 02:00:15;;;;;;;9.47;7.80;;;10.30;99.90;;;;;;4971042;28;20212;-80
2024/01/30 02:02:46;;;;;;;10.83;8.17;;;10.30;99.90;;;;;;4999391;28;20212;-81
2024/01/30 02:05:13;;;;;;;10.47;7.53;;;10.30;99.90;;;;;;4990017;28;20686;-81
2024/01/30 02:07:41;;;;;;;9.40;7.70;;;10.20;99.90;;;;;;4982260;28;20215;-81
2024/01/30 02:10:10;;;;;;;10.43;8.30;;;10.20;99.90;;;;;;5002810;28;20201;-81
2024/01/30 02:12:38;;;;;;;11.17;7.77;;;10.20;99.90;;;;;;4980906;28;20223;-81
2024/01/30 02:15:07;;;;;;;11.87;8.00;;;10.20;99.90;;;;;;4984728;28;20647;-81
2024/01/30 02:17:35;;;;;;;12.73;7.83;;;10.20;99.90;;;;;;4984946;28;20701;-81
2024/01/30 02:20:05;;;;;;;9.77;8.60;;;10.30;99.90;;;;;;4982159;28;20197;-81
2024/01/30 02:22:35;;;;;;;9.80;7.57;;;10.20;99.90;;;;;;4984421;28;20216;-81
2024/01/30 02:25:03;;;;;;;11.00;8.20;;;10.20;99.90;;;;;;4984986;28;20219;-81
2024/01/30 02:27:30;;;;;;;9.00;7.80;;;10.20;99.90;;;;;;4984642;28;20207;-81
2024/01/30 02:29:59;;;;;;;10.50;7.97;;;10.20;99.90;;;;;;4984203;28;20205;-81
2024/01/30 02:32:27;;;;;;;9.70;7.90;;;10.30;99.90;;;;;;4983615;28;20682;-81
2024/01/30 02:34:54;;;;;;;9.30;7.30;;;10.30;99.90;;;;;;4986892;28;20204;-81
2024/01/30 02:37:22;;;;;;;9.57;7.93;;;10.30;99.90;;;;;;4985831;28;20201;-81
2024/01/30 02:39:51;;;;;;;8.43;7.53;;;10.20;99.90;;;;;;4980167;28;20203;-81
2024/01/30 02:42:18;;;;;;;10.60;8.10;;;10.30;99.90;;;;;;4986373;28;20220;-80
2024/01/30 02:44:46;;;;;;;11.53;7.70;;;10.20;99.90;;;;;;4983701;28;20228;-81
2024/01/30 02:47:13;;;;;;;9.73;7.93;;;10.20;99.90;;;;;;4983143;28;20570;-81
2024/01/30 02:49:41;;;;;;;8.87;7.60;;;10.20;99.90;;;;;;4983440;28;20666;-81
2024/01/30 02:52:08;;;;;;;10.03;8.50;;;10.20;99.90;;;;;;4982466;28;20220;-81
2024/01/30 02:54:35;;;;;;;10.10;7.07;;;10.20;99.90;;;;;;4982454;28;20196;-81
2024/01/30 02:57:05;;;;;;;12.00;8.53;;;10.20;99.90;;;;;;4982781;28;20204;-80
2024/01/30 02:59:33;;;;;;;10.27;7.77;;;10.20;99.90;;;;;;4977753;28;20201;-81
2024/01/30 03:02:00;;;;;;;9.00;7.73;;;10.20;99.90;;;;;;4985132;28;20223;-81
2024/01/30 03:04:29;;;;;;;10.77;7.73;;;10.20;99.90;;;;;;4982911;28;20216;-81
2024/01/30 03:06:57;;;;;;;9.87;8.00;;;10.20;99.90;;;;;;4983251;28;20200;-80
2024/01/30 03:09:23;;;;;;;9.60;7.60;;;10.20;99.90;;;;;;4982691;28;20196;-81
2024/01/30 03:11:51;;;;;;;9.43;7.63;;;10.20;99.90;;;;;;4982607;28;20208;-81
2024/01/30 03:14:20;;;;;;;10.07;7.70;;;10.20;99.90;;;;;;4992228;28;20563;-81
2024/01/30 03:16:47;;;;;;;8.43;7.53;;;10.30;99.90;;;;;;4984233;28;20200;-81
2024/01/30 03:19:15;;;;;;;10.97;7.83;;;10.30;99.90;;;;;;4984384;28;20203;-81
2024/01/30 03:21:42;;;;;;;11.00;7.73;;;10.30;99.90;;;;;;4978831;28;20689;-81
2024/01/30 03:24:10;;;;;;;10.18;7.53;;;10.30;99.90;;;;;;4981172;28;20216;-81
2024/01/30 03:26:37;;;;;;;10.10;7.13;;;10.30;99.90;;;;;;4982278;28;20561;-81
2024/01/30 03:29:05;;;;;;;10.17;7.20;;;10.30;99.90;;;;;;4982533;28;20196;-81
2024/01/30 03:31:34;;;;;;;11.53;7.23;;;10.30;99.90;;;;;;4993931;28;20191;-80
2024/01/30 03:34:02;;;;;;;8.20;7.17;;;10.30;99.90;;;;;;4987017;28;20211;-81
2024/01/30 03:36:32;;;;;;;10.60;7.80;;;10.30;99.90;;;;;;4982899;28;20192;-81
2024/01/30 03:39:07;;;;;;;8.63;7.70;;;10.30;99.90;;;;;;4981949;28;20192;-81
2024/01/30 03:41:34;;;;;;;9.03;6.90;;;10.30;99.90;;;;;;4981256;28;20203;-80
2024/01/30 03:44:02;;;;;;;10.80;7.57;;;10.30;99.90;;;;;;4980514;28;20223;-81
2024/01/30 03:46:29;;;;;;;12.93;7.20;;;10.30;99.90;;;;;;4982050;28;20207;-81
2024/01/30 03:48:58;;;;;;;10.57;7.40;;;10.30;99.90;;;;;;4999029;28;20207;-81
2024/01/30 03:51:26;;;;;;;8.60;7.07;;;10.30;99.90;;;;;;4983610;28;20659;-81
2024/01/30 03:53:53;;;;;;;10.43;6.70;;;10.30;99.90;;;;;;4991566;28;20674;-81
2024/01/30 03:56:20;;;;;;;8.80;6.80;;;10.30;99.90;;;;;;4986785;28;20192;-81
2024/01/30 03:58:48;;;;;;;12.13;7.73;;;10.30;99.90;;;;;;5001219;28;20546;-81
2024/01/30 04:01:16;;;;;;;9.10;7.20;;;10.30;99.90;;;;;;4987141;28;20197;-81
2024/01/30 04:03:44;;;;;;;8.67;6.77;;;10.30;99.90;;;;;;4989570;28;20222;-81
2024/01/30 04:06:13;;;;;;;9.30;7.27;;;10.30;99.90;;;;;;4986609;28;20208;-81
2024/01/30 04:08:42;;;;;;;9.87;7.23;;;10.30;99.90;;;;;;4988333;28;20196;-81
2024/01/30 04:11:10;;;;;;;10.10;6.90;;;10.30;99.90;;;;;;4978937;28;20207;-81
2024/01/30 04:13:37;;;;;;;8.40;6.37;;;10.30;99.90;;;;;;4988663;28;20781;-81
2024/01/30 04:16:05;;;;;;;11.50;7.30;;;10.30;99.90;;;;;;4986154;28;20212;-80
2024/01/30 04:18:33;;;;;;;11.93;7.23;;;10.30;99.90;;;;;;4983652;28;20205;-81
2024/01/30 04:21:01;;;;;;;9.50;7.78;;;10.30;99.90;;;;;;4984589;28;20196;-81
2024/01/30 04:23:30;;;;;;;11.20;6.60;;;10.20;99.90;;;;;;4983505;28;20224;-81
2024/01/30 04:25:57;;;;;;;11.23;7.27;;;10.20;99.90;;;;;;4979089;28;20217;-81
2024/01/30 04:28:25;;;;;;;7.73;6.20;;;10.20;99.90;;;;;;5015425;28;20203;-80
2024/01/30 04:30:54;;;;;;;9.60;6.83;;;10.20;99.90;;;;;;5001966;28;20673;-80
2024/01/30 04:33:21;;;;;;;8.43;6.90;;;10.20;99.90;;;;;;5002037;28;20230;-80
2024/01/30 04:35:49;;;;;;;9.43;7.03;;;10.20;99.90;;;;;;5001090;28;20195;-80
2024/01/30 04:38:16;;;;;;;9.17;6.70;;;10.20;99.90;;;;;;4993892;28;20208;-81
2024/01/30 04:40:45;;;;;;;7.37;6.60;;;10.20;99.90;;;;;;5015654;28;20193;-81
2024/01/30 04:43:12;;;;;;;8.07;6.60;;;10.20;99.90;;;;;;4994729;28;20220;-81
2024/01/30 04:45:40;;;;;;;10.07;7.13;;;10.20;99.90;;;;;;5001232;28;20207;-80
2024/01/30 04:48:08;;;;;;;9.83;6.43;;;10.30;99.90;;;;;;5010489;28;20210;-80
2024/01/30 04:50:36;;;;;;;8.37;6.73;;;10.20;99.90;;;;;;4994675;28;20227;-80
2024/01/30 04:53:03;;;;;;;7.77;6.07;;;10.20;99.90;;;;;;5000894;28;20231;-80
2024/01/30 04:55:31;;;;;;;7.63;6.47;;;10.20;99.90;;;;;;5001160;28;20545;-81
2024/01/30 04:57:59;;;;;;;9.37;6.70;;;10.20;99.90;;;;;;5002937;28;20189;-81
2024/01/30 05:00:27;;;;;;;10.07;6.23;;;10.20;99.90;;;;;;5000370;28;20201;-81
2024/01/30 05:02:56;;;;;;;6.80;6.07;;;10.20;99.90;;;;;;4982037;28;20224;-81
2024/01/30 05:05:23;;;;;;;6.97;6.27;;;10.20;99.90;;;;;;4979973;28;20236;-81
2024/01/30 05:07:51;;;;;;;7.67;6.47;;;10.30;99.90;;;;;;4982290;28;20207;-81
2024/01/30 05:10:18;;;;;;;7.47;6.27;;;10.20;99.90;;;;;;4983132;28;20200;-81
2024/01/30 05:12:46;;;;;;;8.20;6.80;;;10.20;99.90;;;;;;4987264;28;20220;-81
2024/01/30 05:15:15;;;;;;;10.20;7.07;;;10.30;99.90;;;;;;4983558;28;20559;-81
2024/01/30 05:17:42;;;;;;;8.13;6.37;;;10.20;99.90;;;;;;4984736;28;20196;-81
2024/01/30 05:20:11;;;;;;;8.07;6.60;;;10.20;99.90;;;;;;5000145;28;20607;-81
2024/01/30 05:22:44;;;;;;;8.60;6.50;;;10.20;99.90;;;;;;4980440;28;20236;-81
2024/01/30 05:25:12;;;;;;;8.20;6.87;;;10.20;99.90;;;;;;4980861;28;20212;-81
2024/01/30 05:27:40;;;;;;;9.53;6.27;;;10.10;99.90;;;;;;4990305;28;20199;-81
2024/01/30 05:30:09;;;;;;;7.07;6.00;;;10.10;99.90;;;;;;4993731;28;20204;-81
2024/01/30 05:32:37;;;;;;;7.00;6.17;;;10.10;99.90;;;;;;4979501;28;20223;-81
2024/01/30 05:35:05;;;;;;;7.47;6.73;;;10.10;99.90;;;;;;4980397;28;20193;-81
2024/01/30 05:37:32;;;;;;;8.10;6.77;;;10.10;99.90;;;;;;4980818;28;20216;-81
2024/01/30 05:40:00;;;;;;;8.97;6.47;;;10.10;99.90;;;;;;4980985;28;20197;-82
2024/01/30 05:42:28;;;;;;;7.37;6.00;;;10.10;99.90;;;;;;4980606;28;20694;-81
2024/01/30 05:44:55;;;;;;;7.53;6.00;;;10.00;99.90;;;;;;4981351;28;20208;-81
2024/01/30 05:47:23;;;;;;;7.50;5.90;;;10.00;99.90;;;;;;4981134;28;20200;-81
2024/01/30 05:49:52;;;;;;;8.07;7.20;;;10.10;99.90;;;;;;4999823;28;20199;-81
2024/01/30 05:52:19;;;;;;;7.57;6.57;;;10.10;99.90;;;;;;4983149;28;20224;-81
2024/01/30 05:54:47;;;;;;;8.50;6.70;;;10.10;99.90;;;;;;4999725;28;20188;-81
2024/01/30 05:57:16;;;;;;;6.73;6.07;;;10.10;99.90;;;;;;4983123;28;20729;-81
2024/01/30 05:59:47;;;;;;;7.47;5.77;;;10.10;99.90;;;;;;4984240;28;20575;-81
2024/01/30 06:02:15;;;;;;;7.10;6.23;;;10.10;99.90;;;;;;5001026;28;20224;-81
2024/01/30 06:04:42;;;;;;;8.60;6.70;;;10.10;99.90;;;;;;4987234;28;20200;-81
2024/01/30 06:07:11;;;;;;;7.03;6.27;;;10.10;99.90;;;;;;4996159;28;20231;-81
2024/01/30 06:09:41;;;;;;;7.43;6.00;;;10.10;99.90;;;;;;4984685;28;20205;-81
2024/01/30 06:12:11;;;;;;;7.30;6.60;;;10.10;99.90;;;;;;4983397;28;20228;-81
2024/01/30 06:14:39;;;;;;;8.73;6.73;;;10.10;99.90;;;;;;4999711;28;20215;-81
2024/01/30 06:17:07;;;;;;;9.73;6.13;;;10.10;99.90;;;;;;4985535;28;20209;-81
2024/01/30 06:19:34;;;;;;;9.60;6.43;;;10.10;99.90;;;;;;4984476;28;20196;-81
2024/01/30 06:22:04;;;;;;;8.40;6.10;;;10.10;99.90;;;;;;4983555;28;20224;-81
2024/01/30 06:24:34;;;;;;;8.23;6.23;;;10.10;99.90;;;;;;4984170;28;20674;-81
2024/01/30 06:27:01;;;;;;;11.10;5.90;;;10.10;99.90;;;;;;4993222;28;20228;-81
2024/01/30 06:29:29;;;;;;;8.47;6.47;;;10.10;99.90;;;;;;4983506;28;20207;-81
2024/01/30 06:31:57;;;;;;;8.10;6.37;;;10.10;99.90;;;;;;4998749;28;20228;-80
2024/01/30 06:34:26;;;;;;;9.70;4.60;;;10.10;99.90;;;;;;4984235;28;20204;-78
2024/01/30 06:36:53;;;;;;;9.53;6.20;;;11.40;99.90;;;;;;4975138;28;20251;-77
2024/01/30 06:39:21;;;;;;;7.05;6.10;;;11.70;99.90;;;;;;4987229;28;20212;-82
2024/01/30 06:41:49;;;;;;;7.70;6.38;;;10.90;99.90;;;;;;4988767;28;20235;-81
2024/01/30 06:44:17;;;;;;;8.53;6.50;;;10.50;99.90;;;;;;5010226;28;20205;-82
2024/01/30 06:47:02;;;;;;;8.33;6.90;;;10.30;99.90;;;;;;4986545;28;20215;-81
2024/01/30 06:49:30;;;;;;;8.15;5.60;;;10.30;99.90;;;;;;4980140;28;20208;-82
2024/01/30 06:51:57;;;;;;;7.40;6.00;;;10.20;99.90;;;;;;4985212;28;20228;-81
2024/01/30 06:54:25;;;;;;;7.57;6.10;;;10.20;99.90;;;;;;4990541;28;20204;-81
2024/01/30 06:56:54;;;;;;;8.52;6.03;;;10.20;99.90;;;;;;5004288;28;20196;-81
2024/01/30 06:59:24;;;;;;;8.33;6.27;;;10.20;99.90;;;;;;4973548;28;20208;-81
2024/01/30 07:02:36;;;;;;;7.57;5.80;;;10.20;99.90;;;;;;4999951;28;20705;-81
2024/01/30 07:05:41;;;;;;;7.83;6.37;;;10.20;99.90;;;;;;4917210;29;20219;-82
2024/01/30 07:08:19;;;;;;;9.77;6.80;;;10.20;99.90;;;;;;5002269;28;20196;-82
2024/01/30 07:11:12;;;;;;;;;;;;;;;;;;;;;
2024/01/30 07:13:55;;;;;;;9.43;6.50;;;10.20;99.90;;;;;;4998001;28;20203;-81
2024/01/30 07:19:27;;;;;;;8.63;6.60;;;10.20;99.90;;;;;;4974597;28;20192;-78
2024/01/30 07:21:55;;;;;;;8.73;6.37;;;10.20;99.90;;;;;;4990944;28;20224;-78
2024/01/30 07:24:25;;;;;;;11.07;6.53;;;10.30;99.90;;;;;;4977162;28;20201;-78
2024/01/30 07:26:53;;;;;;;7.30;6.57;;;10.30;99.90;;;;;;4996057;28;20208;-79
2024/01/30 07:29:22;;;;;;;8.87;6.27;;;10.30;99.90;;;;;;4978066;28;20215;-77
2024/01/30 07:31:50;;;;;;;10.70;6.30;;;10.40;99.90;;;;;;4973260;28;20217;-78
2024/01/30 07:34:17;;;;;;;8.53;5.63;;;10.90;99.90;;;;;;4994516;28;20212;-79
2024/01/30 07:36:46;;;;;;;8.67;6.17;;;10.60;99.90;;;;;;4995736;28;20554;-77
2024/01/30 07:39:14;;;;;;;7.67;5.70;;;10.40;99.90;;;;;;4978239;28;20212;-77
2024/01/30 07:41:41;;;;;;;9.43;6.33;;;10.40;99.90;;;;;;4993351;28;20227;-77
2024/01/30 07:44:09;;;;;;;8.20;6.33;;;10.40;99.90;;;;;;4977799;28;20682;-77
2024/01/30 07:46:38;;;;;;;9.80;6.30;;;10.40;99.90;;;;;;4994007;28;20220;-77
2024/01/30 07:49:05;;;;;;;6.93;6.07;;;10.40;99.90;;;;;;4986983;28;20203;-77
2024/01/30 07:51:33;;;;;;;7.97;6.30;;;10.40;99.90;;;;;;4995739;28;20203;-78
2024/01/30 07:54:00;;;;;;;9.57;6.10;;;10.40;99.90;;;;;;4983961;28;20205;-76
2024/01/30 07:56:28;;;;;;;7.20;6.00;;;10.40;99.90;;;;;;4972880;28;20192;-77
2024/01/30 07:58:55;;;;;;;8.67;6.00;;;10.40;99.90;;;;;;4988769;28;20559;-77
2024/01/30 08:01:31;;;;;;;8.80;6.53;;;10.50;99.90;;;;;;4984410;28;20200;-77
2024/01/30 08:04:00;;;;;;;9.37;5.93;;;10.50;99.90;;;;;;4972728;28;20196;-76
2024/01/30 08:06:28;;;;;;;8.83;6.20;;;10.50;99.90;;;;;;4971414;28;20216;-78
2024/01/30 08:08:57;;;;;;;6.37;5.30;;;10.50;99.90;;;;;;4997719;28;20204;-77
2024/01/30 08:11:26;;;;;;;7.43;5.60;;;10.60;99.90;;;;;;4981826;28;20196;-77
2024/01/30 08:13:53;;;;;;;8.23;5.87;;;10.60;99.90;;;;;;4975432;28;20204;-77
2024/01/30 08:16:21;;;;;;;7.03;6.07;;;10.60;99.90;;;;;;4976581;28;20212;-77
2024/01/30 08:18:57;;;;;;;6.70;5.60;;;10.70;99.90;;;;;;4983478;28;20211;-77
2024/01/30 08:21:26;;;;;;;8.00;6.53;;;10.60;99.90;;;;;;4982687;28;20709;-77
2024/01/30 08:23:54;;;;;;;8.93;6.23;;;10.70;99.90;;;;;;4983950;28;20211;-78
2024/01/30 08:26:26;;;;;;;7.60;5.73;;;10.70;99.90;;;;;;4981972;28;20200;-78
2024/01/30 08:28:54;;;;;;;6.97;5.83;;;10.70;99.90;;;;;;4987908;28;20200;-78
2024/01/30 08:31:21;;;;;;;6.70;6.00;;;10.70;99.90;;;;;;4982307;28;20203;-78
2024/01/30 08:33:49;;;;;;;6.97;5.70;;;10.70;99.90;;;;;;4978517;28;20193;-78
2024/01/30 08:36:19;;;;;;;8.37;6.33;;;10.70;99.90;;;;;;4976187;28;20204;-78
2024/01/30 08:38:47;;;;;;;6.38;5.78;;;10.70;99.90;;;;;;4983247;28;20233;-78
2024/01/30 08:41:15;;;;;;;7.82;6.03;;;10.80;99.90;;;;;;4992763;28;20227;-78
2024/01/30 08:43:44;;;;;;;8.35;6.18;;;10.80;99.90;;;;;;4978169;28;20224;-77
2024/01/30 08:46:12;;;;;;;9.70;6.40;;;10.90;99.90;;;;;;4972754;28;20200;-78
2024/01/30 08:48:39;;;;;;;8.87;6.33;;;10.90;99.90;;;;;;4980775;28;20251;-77
2024/01/30 08:51:08;;;;;;;6.47;5.88;;;11.00;99.90;;;;;;4995592;28;20188;-77
2024/01/30 08:53:36;;;;;;;8.15;5.68;;;11.00;99.90;;;;;;4984575;28;20224;-78
2024/01/30 08:56:09;;;;;;;8.98;6.95;;;11.00;99.90;;;;;;4980469;28;20208;-78
2024/01/30 08:58:50;;;;;;;8.40;5.50;;;11.00;99.90;;;;;;4985010;28;20209;-78
2024/01/30 09:01:28;;;;;;;8.67;6.50;;;11.10;99.90;;;;;;4981812;28;20211;-78
2024/01/30 09:03:55;;;;;;;6.80;6.18;;;11.10;99.90;;;;;;4973173;28;20202;-78
2024/01/30 09:06:23;;;;;;;8.20;6.27;;;11.10;99.90;;;;;;4977049;28;20192;-79
2024/01/30 09:08:51;;;;;;;9.23;6.35;;;11.20;99.90;;;;;;4977992;28;20220;-78
2024/01/30 09:11:32;;;;;;;7.80;5.97;;;11.20;99.90;;;;;;4977534;28;20204;-78
2024/01/30 09:14:00;;;;;;;7.80;5.50;;;11.30;99.90;;;;;;4976789;28;20230;-78
2024/01/30 09:16:30;;;;;;;7.67;5.70;;;11.30;99.90;;;;;;4971323;28;20200;-78
2024/01/30 09:18:58;;;;;;;7.28;6.30;;;11.40;99.90;;;;;;4972728;28;20192;-78
2024/01/30 09:21:25;;;;;;;7.15;5.88;;;11.40;99.90;;;;;;4974845;28;20570;-78
2024/01/30 09:23:55;;;;;;;8.20;5.57;;;11.50;99.90;;;;;;4973689;28;20204;-78
2024/01/30 09:26:23;;;;;;;6.82;4.95;;;11.50;99.90;;;;;;4979582;28;20685;-77
2024/01/30 09:28:52;;;;;;;7.63;5.78;;;11.50;99.90;;;;;;4974937;28;20231;-77
2024/01/30 09:31:22;;;;;;;5.97;5.38;;;11.50;99.90;;;;;;4989597;28;20196;-78
2024/01/30 09:33:51;;;;;;;8.35;5.65;;;11.60;99.90;;;;;;4978170;28;20204;-78
2024/01/30 09:36:19;;;;;;;7.63;5.70;;;11.60;99.90;;;;;;4979754;28;20205;-78
2024/01/30 09:39:00;;;;;;;7.35;5.85;;;11.60;99.90;;;;;;4980238;28;20188;-79
2024/01/30 09:41:30;;;;;;;7.15;5.47;;;11.60;99.90;;;;;;4985351;28;20676;-77
2024/01/30 09:43:59;;;;;;;6.72;5.50;;;11.70;99.90;;;;;;4991165;28;20196;-80
2024/01/30 09:49:12;;;;;;;7.85;5.45;;;11.70;99.90;;;;;;4978961;28;20240;-80
2024/01/30 09:51:40;;;;;;;5.85;5.13;;;11.60;99.90;;;;;;4988443;28;20197;-78
2024/01/30 09:54:10;;;;;;;7.47;5.95;;;11.70;99.90;;;;;;4987772;28;20200;-78
2024/01/30 09:56:38;;;;;;;9.52;5.97;;;11.80;99.90;;;;;;5019310;28;20199;-79
2024/01/30 09:59:12;;;;;;;7.03;5.60;;;11.80;99.90;;;;;;4992579;28;20210;-78
2024/01/30 10:01:41;;;;;;;6.53;5.28;;;11.80;99.90;;;;;;4984992;28;20208;-77
2024/01/30 10:04:09;;;;;;;7.90;5.97;;;11.80;99.90;;;;;;4993091;28;20205;-79
2024/01/30 10:06:43;;;;;;;7.68;5.20;;;11.90;99.90;;;;;;5011089;28;20199;-79
2024/01/30 10:09:11;;;;;;;9.77;7.18;;;12.00;99.90;;;;;;5000765;28;20213;-78
2024/01/30 10:11:38;;;;;;;7.93;5.88;;;12.10;99.90;;;;;;4994557;28;20219;-78
2024/01/30 10:14:06;;;;;;;8.02;5.68;;;12.10;99.90;;;;;;4986544;28;20219;-78
2024/01/30 10:16:36;;;;;;;8.40;6.30;;;12.10;99.90;;;;;;5009876;28;20189;-79
2024/01/30 10:19:04;;;;;;;9.13;5.60;;;12.20;99.90;;;;;;4988687;28;20197;-78
2024/01/30 10:21:31;;;;;;;7.60;5.57;;;12.20;99.90;;;;;;4991666;28;20185;-77
2024/01/30 10:23:59;;;;;;;12.73;5.90;;;12.30;99.90;;;;;;4978230;28;20204;-78
2024/01/30 10:26:29;;;;;;;7.85;5.45;;;12.50;99.90;;;;;;4991396;28;20208;-77
2024/01/30 10:28:56;;;;;;;8.43;5.60;;;12.60;99.90;;;;;;4983272;28;20228;-77
2024/01/30 10:31:27;;;;;;;7.38;5.82;;;12.60;99.90;;;;;;4978633;28;20209;-77
2024/01/30 10:33:56;;;;;;;7.93;5.50;;;12.70;99.90;;;;;;4990865;28;20569;-77
2024/01/30 10:36:29;;;;;;;9.68;5.72;;;12.90;99.90;;;;;;4988120;28;20212;-78
2024/01/30 10:39:02;;;;;;;6.47;5.35;;;12.80;99.90;;;;;;4988552;28;20196;-78
2024/01/30 10:41:36;;;;;;;7.10;5.78;;;12.80;99.90;;;;;;4983427;28;20215;-78
2024/01/30 10:44:09;;;;;;;6.32;4.90;;;12.70;99.90;;;;;;4986130;28;20200;-77
2024/01/30 10:46:38;;;;;;;6.00;5.35;;;12.70;99.90;;;;;;4997179;28;20187;-77
2024/01/30 10:49:08;;;;;;;6.28;5.50;;;12.80;99.90;;;;;;4985287;28;20212;-78
2024/01/30 10:51:37;;;;;;;8.18;5.82;;;12.70;99.90;;;;;;4992117;28;20196;-77
2024/01/30 10:54:07;;;;;;;9.02;5.68;;;12.80;99.90;;;;;;4977962;28;20535;-77
2024/01/30 10:56:36;;;;;;;6.40;5.20;;;13.00;99.90;;;;;;4996729;28;20184;-77
2024/01/30 10:59:03;;;;;;;10.60;5.80;;;13.10;99.90;;;;;;4986246;28;20196;-77
2024/01/30 11:01:31;;;;;;;7.88;5.60;;;13.20;99.90;;;;;;4981214;28;20200;-75
2024/01/30 11:04:02;;;;;;;7.60;5.32;;;13.30;99.90;;;;;;4976703;28;20196;-77
2024/01/30 11:06:31;;;;;;;7.55;5.47;;;13.40;99.90;;;;;;4980980;28;20200;-79
2024/01/30 11:09:04;;;;;;;8.98;5.90;;;13.20;99.90;;;;;;5000482;28;20266;-77
2024/01/30 11:11:34;;;;;;;9.55;5.68;;;13.20;99.90;;;;;;4994733;28;20211;-77
2024/01/30 11:14:03;;;;;;;9.00;5.47;;;13.10;99.90;;;;;;4977861;28;20211;-77
2024/01/30 11:16:33;;;;;;;8.25;6.03;;;13.10;99.90;;;;;;5005115;28;20201;-77
2024/01/30 11:19:11;;;;;;;8.40;6.05;;;13.00;99.90;;;;;;4987794;28;20673;-78
2024/01/30 11:21:43;;;;;;;9.32;5.97;;;13.00;99.90;;;;;;4981518;28;20207;-77
2024/01/30 11:24:11;;;;;;;8.52;5.88;;;13.00;99.90;;;;;;5018663;23;20762;-79
2024/01/30 11:26:39;;;;;;;7.15;5.53;;;12.90;99.90;;;;;;5019341;28;20567;-79
2024/01/30 11:29:09;;;;;;;9.23;6.22;;;12.90;99.90;;;;;;5029059;28;20221;-79
2024/01/30 11:31:37;;;;;;;12.48;5.90;;;13.00;99.90;;;;;;5012767;28;20207;-79
2024/01/30 11:34:05;;;;;;;9.25;6.10;;;12.90;99.90;;;;;;5036451;28;20238;-79
2024/01/30 11:36:37;;;;;;;7.85;6.20;;;13.00;99.90;;;;;;5030390;28;20194;-79
2024/01/30 11:39:07;;;;;;;9.75;6.20;;;12.90;99.90;;;;;;5047951;28;20201;-79
2024/01/30 11:41:38;;;;;;;8.13;5.65;;;12.90;99.90;;;;;;5065563;28;20678;-79
2024/01/30 11:44:05;;;;;;;9.10;6.32;;;12.90;99.90;;;;;;5058891;28;20592;-79
2024/01/30 11:46:34;;;;;;;10.30;5.95;;;12.80;99.90;;;;;;5032830;28;20210;-79
2024/01/30 11:49:02;;;;;;;7.38;5.47;;;12.70;99.90;;;;;;5032210;28;20218;-79
2024/01/30 11:51:32;;;;;;;8.77;6.55;;;12.70;99.90;;;;;;5050052;28;20202;-79
2024/01/30 11:53:59;;;;;;;11.65;6.30;;;12.80;99.90;;;;;;5063515;28;20563;-79
2024/01/30 11:56:28;;;;;;;8.77;6.30;;;12.70;99.90;;;;;;5075377;28;20194;-79
2024/01/30 11:58:56;;;;;;;15.25;6.35;;;12.70;99.90;;;;;;5045062;28;20197;-79
2024/01/30 12:01:23;;;;;;;7.63;6.43;;;12.70;99.90;;;;;;5050527;28;20204;-79
2024/01/30 12:03:51;;;;;;;10.48;5.63;;;12.70;99.90;;;;;;5045061;28;20221;-79
2024/01/30 12:06:22;;;;;;;7.25;5.90;;;12.70;99.90;;;;;;5034451;28;20202;-79
2024/01/30 12:08:58;;;;;;;10.07;5.90;;;12.70;99.90;;;;;;5056776;28;20209;-79
2024/01/30 12:11:30;;;;;;;12.10;6.75;;;12.70;99.90;;;;;;5035880;28;20194;-80
2024/01/30 12:13:57;;;;;;;7.43;5.90;;;12.70;99.90;;;;;;5036112;28;20225;-79
2024/01/30 12:16:25;;;;;;;10.85;7.13;;;12.70;99.90;;;;;;5051657;28;20218;-79
2024/01/30 12:19:01;;;;;;;12.10;6.75;;;12.60;99.90;;;;;;5062669;28;20193;-79
2024/01/30 12:21:30;;;;;;;13.57;7.38;;;12.60;99.90;;;;;;5042368;28;20571;-79
2024/01/30 12:23:57;;;;;;;9.23;6.40;;;12.60;99.90;;;;;;5061465;28;20569;-79
2024/01/30 12:26:26;;;;;;;8.40;6.28;;;12.60;99.90;;;;;;5024644;28;20203;-79
2024/01/30 12:28:57;;;;;;;8.48;5.72;;;12.60;99.90;;;;;;5031016;28;20222;-80
2024/01/30 12:31:31;;;;;;;9.75;7.20;;;12.60;99.90;;;;;;5052743;28;20668;-80
2024/01/30 12:34:00;;;;;;;12.80;6.13;;;12.60;99.90;;;;;;5058518;28;20214;-80
2024/01/30 12:36:30;;;;;;;10.63;7.03;;;12.60;99.90;;;;;;5049090;28;20218;-80
2024/01/30 12:38:58;;;;;;;9.07;6.68;;;12.60;99.90;;;;;;5029022;28;20602;-80
2024/01/30 12:41:29;;;;;;;9.27;6.75;;;12.60;99.90;;;;;;5033499;28;20202;-80
2024/01/30 12:43:59;;;;;;;10.98;6.82;;;12.60;99.90;;;;;;5048312;28;20229;-80
2024/01/30 12:46:29;;;;;;;12.75;6.97;;;12.60;99.90;;;;;;5050496;28;20194;-80
2024/01/30 12:48:57;;;;;;;9.43;6.65;;;12.60;99.90;;;;;;5033082;28;20221;-82
2024/01/30 12:51:24;;;;;;;9.00;6.78;;;12.60;99.90;;;;;;5034344;28;20202;-81
2024/01/30 12:53:51;;;;;;;12.13;8.13;;;12.60;99.90;;;;;;5034488;28;20225;-81
2024/01/30 12:56:19;;;;;;;9.55;6.78;;;12.60;99.90;;;;;;5032459;28;20201;-82
2024/01/30 12:58:46;;;;;;;11.98;7.88;;;12.60;99.90;;;;;;5028259;28;20197;-81
2024/01/30 13:01:15;;;;;;;11.35;7.22;;;12.50;99.90;;;;;;5032169;28;20199;-81